Meita Maru — YJQE8 — position and weather

sailwx.info

Track history (hours):
 
Tides and Currents Weather Stations Pressure Air Temp Water Temp Dewpoint Dewpoint Depression Visibility Wind Speed Wind Dir Waves Ship Positions

Meita Maru

Last reported at 2015-Jun-21 18:33 UTC. Time now 2015-Jul-03 15:35 UTC.
Position S 30°02' E 031°57'.
Warning: this ship's position is 11 days out of date.

Length 106 m; draft 6.1 m.

Type: Cargo ship. MMSI: 576419000.

Date/timePositionNaut miles runAvg speedWind from/ knotsBaromVisibWave heightAir tempDewpointWater temp
2015-Jun-21 18:33S 30°02' E 031°57'1312.4
2015-Jun-21 17:29S 30°02' E 031°42'1213.0
2015-Jun-21 16:33S 30°00' E 031°28'1414.1
2015-Jun-21 15:34S 29°53' E 031°14'10 9.7
2015-Jun-21 14:33S 29°53' E 031°03'0 0.1
2015-Jun-21 13:33S 29°52' E 031°03'0 0.0
2015-Jun-21 12:30S 29°52' E 031°03'0 0.0
2015-Jun-21 11:30S 29°52' E 031°03'0 0.0
2015-Jun-21 10:33S 29°52' E 031°03'0 0.0
2015-Jun-21 09:33S 29°52' E 031°03'0 0.0
2015-Jun-21 08:24S 29°52' E 031°03'0 0.0
2015-Jun-21 07:33S 29°52' E 031°03'3 3.3
2015-Jun-21 06:33S 29°50' E 031°05'2 2.1
2015-Jun-21 05:33S 29°49' E 031°07'8 8.1
2015-Jun-21 04:33S 29°56' E 031°13'1110.9
2015-Jun-21 03:33S 30°06' E 031°11'1110.6
2015-Jun-21 02:33S 30°16' E 031°08'1010.1
2015-Jun-21 01:33S 30°26' E 031°05'204 7.8
2015-Jun-19 23:29S 32°59' E 028°26'1515.4
2015-Jun-19 22:31S 33°09' E 028°13'1615.9
2015-Jun-19 21:32S 33°18' E 027°58'28513.9
2015-Jun-19 01:03S 34°30' E 022°25'2514.4
2015-Jun-18 23:18S 34°31' E 021°55'25212.2
2015-Jun-18 02:34S 32°51' E 017°17'  
Track history (hours):
 
Tides and Currents Weather Stations Pressure Air Temp Water Temp Dewpoint Dewpoint Depression Visibility Wind Speed Wind Dir Waves Ship Positions

Meita Maru

Last reported at 2015-Jun-21 18:33 UTC. Time now 2015-Jul-03 15:35 UTC.
Position S 30°02' E 031°57'.
Warning: this ship's position is 11 days out of date.

Length 106 m; draft 6.1 m.

Type: Cargo ship. MMSI: 576419000.

Date/timePositionNaut miles runAvg speedWind from/ knotsBaromVisibWave heightAir tempDewpointWater temp
2015-Jun-21 18:33S 30°02' E 031°57'1312.4
2015-Jun-21 17:29S 30°02' E 031°42'1213.0
2015-Jun-21 16:33S 30°00' E 031°28'1414.1
2015-Jun-21 15:34S 29°53' E 031°14'10 9.7
2015-Jun-21 14:33S 29°53' E 031°03'0 0.1
2015-Jun-21 13:33S 29°52' E 031°03'0 0.0
2015-Jun-21 12:30S 29°52' E 031°03'0 0.0
2015-Jun-21 11:30S 29°52' E 031°03'0 0.0
2015-Jun-21 10:33S 29°52' E 031°03'0 0.0
2015-Jun-21 09:33S 29°52' E 031°03'0 0.0
2015-Jun-21 08:24S 29°52' E 031°03'0 0.0
2015-Jun-21 07:33S 29°52' E 031°03'3 3.3
2015-Jun-21 06:33S 29°50' E 031°05'2 2.1
2015-Jun-21 05:33S 29°49' E 031°07'8 8.1
2015-Jun-21 04:33S 29°56' E 031°13'1110.9
2015-Jun-21 03:33S 30°06' E 031°11'1110.6
2015-Jun-21 02:33S 30°16' E 031°08'1010.1
2015-Jun-21 01:33S 30°26' E 031°05'204 7.8
2015-Jun-19 23:29S 32°59' E 028°26'1515.4
2015-Jun-19 22:31S 33°09' E 028°13'1615.9
2015-Jun-19 21:32S 33°18' E 027°58'28513.9
2015-Jun-19 01:03S 34°30' E 022°25'2514.4
2015-Jun-18 23:18S 34°31' E 021°55'25212.2
2015-Jun-18 02:34S 32°51' E 017°17'  

Dump ship's entire track history